Time;durP1;ratioP1;P1;durP2;ratioP2;P2;SDS_P1;SDS_P2;PMS_P1;PMS_P2;Temp;Humidity;BMP_temperature;BMP_pressure;BME280_temperature;BME280_humidity;BME280_pressure;Samples;Min_cycle;Max_cycle;Signal;HPM_P1;HPM_P2
2021/12/02 00:00:16;;;;;;;0.45;0.35;;;7.40;92.30;;;;;;5041108;28;20472;-83
2021/12/02 00:02:42;;;;;;;0.30;0.30;;;7.40;92.30;;;;;;5042501;28;20494;-83
2021/12/02 00:05:09;;;;;;;1.55;0.40;;;7.40;92.30;;;;;;5042461;28;20029;-83
2021/12/02 00:07:34;;;;;;;0.80;0.30;;;7.40;92.40;;;;;;5038976;28;20096;-84
2021/12/02 00:10:01;;;;;;;0.32;0.32;;;7.40;92.50;;;;;;5060596;28;20215;-83
2021/12/02 00:12:26;;;;;;;0.85;0.40;;;7.40;92.60;;;;;;5070047;28;20028;-82
2021/12/02 00:14:53;;;;;;;0.30;0.30;;;7.40;92.60;;;;;;5060442;28;20036;-83
2021/12/02 00:17:28;;;;;;;1.40;0.47;;;7.40;92.60;;;;;;5058980;28;20040;-83
2021/12/02 00:23:22;;;;;;;1.10;0.40;;;7.40;92.50;;;;;;5044218;28;20048;-83
2021/12/02 00:25:51;;;;;;;1.00;0.40;;;7.50;92.00;;;;;;5035016;28;20084;-82
2021/12/02 00:28:18;;;;;;;0.40;0.40;;;7.40;92.10;;;;;;5051197;28;20420;-83
2021/12/02 00:30:43;;;;;;;0.40;0.32;;;7.40;92.00;;;;;;5057946;28;20040;-80
2021/12/02 00:33:11;;;;;;;0.38;0.38;;;7.40;92.00;;;;;;5038132;28;20057;-84
2021/12/02 00:35:37;;;;;;;0.38;0.35;;;7.40;92.10;;;;;;5053529;28;20460;-84
2021/12/02 00:38:03;;;;;;;0.55;0.20;;;7.30;91.90;;;;;;5037006;28;20565;-82
2021/12/02 00:40:32;;;;;;;0.52;0.32;;;7.20;92.00;;;;;;5070696;28;20039;-81
2021/12/02 00:42:59;;;;;;;0.30;0.30;;;7.10;92.20;;;;;;5042258;28;20030;-83
2021/12/02 00:45:26;;;;;;;0.30;0.30;;;7.00;92.40;;;;;;5057392;28;20121;-80
2021/12/02 00:47:52;;;;;;;0.20;0.17;;;7.00;92.60;;;;;;5056289;28;20026;-81
2021/12/02 00:50:18;;;;;;;0.60;0.30;;;6.90;92.80;;;;;;5054424;28;20034;-80
2021/12/02 00:52:45;;;;;;;0.43;0.40;;;6.90;92.90;;;;;;5055571;28;20383;-81
2021/12/02 00:55:12;;;;;;;1.30;0.38;;;6.90;92.90;;;;;;5044898;28;20082;-83
2021/12/02 00:57:42;;;;;;;0.35;0.32;;;7.00;93.10;;;;;;5041866;28;20040;-82
2021/12/02 01:00:09;;;;;;;0.38;0.38;;;7.00;93.10;;;;;;5041259;28;20040;-83
2021/12/02 01:02:37;;;;;;;1.55;0.40;;;7.10;93.10;;;;;;5041724;28;20029;-83
2021/12/02 01:05:04;;;;;;;0.32;0.32;;;7.10;92.90;;;;;;5041181;28;20123;-83
2021/12/02 01:07:30;;;;;;;0.75;0.20;;;7.10;92.50;;;;;;5040297;28;20017;-83
2021/12/02 01:09:57;;;;;;;0.28;0.28;;;7.10;92.20;;;;;;5030843;28;20397;-83
2021/12/02 01:12:23;;;;;;;1.25;0.30;;;7.10;92.20;;;;;;5040197;28;20056;-82
2021/12/02 01:14:49;;;;;;;0.30;0.30;;;6.90;92.30;;;;;;5038235;28;20037;-81
2021/12/02 01:17:15;;;;;;;0.47;0.30;;;6.90;92.40;;;;;;5051531;28;20072;-82
2021/12/02 01:19:40;;;;;;;0.45;0.30;;;6.80;92.50;;;;;;5040929;28;20053;-84
2021/12/02 01:22:07;;;;;;;0.40;0.40;;;6.80;92.40;;;;;;5041048;28;20389;-83
2021/12/02 01:24:34;;;;;;;0.70;0.30;;;6.70;92.50;;;;;;5040222;28;20021;-82
2021/12/02 01:27:05;;;;;;;0.30;0.30;;;6.60;92.80;;;;;;5039836;28;20037;-84
2021/12/02 01:29:34;;;;;;;0.43;0.30;;;6.70;92.80;;;;;;5021647;28;20124;-82
2021/12/02 01:32:06;;;;;;;0.50;0.30;;;6.60;92.90;;;;;;5046468;28;20450;-80
2021/12/02 01:34:32;;;;;;;0.40;0.40;;;6.50;93.10;;;;;;5057550;28;20014;-80
2021/12/02 01:36:58;;;;;;;0.50;0.50;;;6.50;93.30;;;;;;5056184;28;20018;-82
2021/12/02 01:39:25;;;;;;;0.50;0.50;;;6.40;93.20;;;;;;5043056;28;20474;-83
2021/12/02 01:41:55;;;;;;;0.38;0.30;;;6.40;93.30;;;;;;5058435;28;20305;-82
2021/12/02 01:44:23;;;;;;;0.20;0.20;;;6.40;93.50;;;;;;5046812;28;20164;-81
2021/12/02 01:46:51;;;;;;;0.60;0.40;;;6.40;93.40;;;;;;5041142;28;20017;-83
2021/12/02 01:49:19;;;;;;;0.75;0.30;;;6.30;93.50;;;;;;5041359;28;20032;-83
2021/12/02 01:51:51;;;;;;;0.57;0.35;;;6.30;93.30;;;;;;5025629;28;20344;-84
2021/12/02 01:54:20;;;;;;;0.20;0.20;;;6.30;93.50;;;;;;5044913;28;20454;-84
2021/12/02 01:56:51;;;;;;;1.27;0.50;;;6.30;93.40;;;;;;5046289;28;20539;-84
2021/12/02 01:59:20;;;;;;;0.65;0.30;;;6.30;93.40;;;;;;5046824;28;20029;-83
2021/12/02 02:01:50;;;;;;;0.85;0.60;;;6.20;93.50;;;;;;5044503;28;20025;-82
2021/12/02 02:04:16;;;;;;;0.30;0.30;;;6.10;93.60;;;;;;5045237;28;20077;-83
2021/12/02 02:07:05;;;;;;;1.15;0.35;;;6.20;93.50;;;;;;5045025;28;20019;-82
2021/12/02 02:09:33;;;;;;;0.43;0.20;;;6.20;93.50;;;;;;5051110;28;20109;-82
2021/12/02 02:12:06;;;;;;;1.38;0.73;;;6.20;93.50;;;;;;5053460;28;20040;-83
2021/12/02 02:14:32;;;;;;;0.30;0.30;;;6.10;93.80;;;;;;5043103;28;20091;-83
2021/12/02 02:17:06;;;;;;;0.30;0.30;;;6.10;93.90;;;;;;5043779;28;20032;-81
2021/12/02 02:19:32;;;;;;;0.30;0.30;;;6.10;93.90;;;;;;5026401;28;20025;-83
2021/12/02 02:21:59;;;;;;;2.40;0.28;;;6.10;93.90;;;;;;5043244;28;20022;-83
2021/12/02 02:24:25;;;;;;;0.32;0.20;;;6.10;94.10;;;;;;5026251;28;20036;-82
2021/12/02 02:26:51;;;;;;;0.50;0.40;;;6.10;94.20;;;;;;5044625;28;20021;-83
2021/12/02 02:29:18;;;;;;;0.68;0.38;;;6.10;94.30;;;;;;5026548;28;20366;-80
2021/12/02 02:31:45;;;;;;;0.70;0.40;;;6.20;94.40;;;;;;5044463;28;20017;-84
2021/12/02 02:34:12;;;;;;;1.05;0.40;;;6.20;94.30;;;;;;5043272;28;20072;-83
2021/12/02 02:36:41;;;;;;;0.40;0.40;;;6.30;94.10;;;;;;5044807;28;20037;-83
2021/12/02 02:39:08;;;;;;;1.05;0.73;;;6.40;94.00;;;;;;5052684;28;20417;-83
2021/12/02 02:41:41;;;;;;;1.65;0.50;;;6.40;93.80;;;;;;5058309;28;20024;-81
2021/12/02 02:44:09;;;;;;;1.55;0.40;;;6.50;93.70;;;;;;5071822;28;20067;-82
2021/12/02 02:46:38;;;;;;;0.40;0.40;;;6.50;93.60;;;;;;5069559;28;20005;-83
2021/12/02 02:49:06;;;;;;;0.32;0.30;;;6.50;93.70;;;;;;5065615;28;20017;-81
2021/12/02 02:51:34;;;;;;;0.47;0.40;;;6.60;93.80;;;;;;5043775;28;20076;-83
2021/12/02 02:54:08;;;;;;;0.88;0.60;;;6.60;93.70;;;;;;5041835;28;20103;-82
2021/12/02 02:56:41;;;;;;;1.05;0.60;;;6.50;93.90;;;;;;5045710;28;20461;-80
2021/12/02 02:59:55;;;;;;;0.50;0.50;;;6.60;94.10;;;;;;5049748;28;20021;-82
2021/12/02 03:07:25;;;;;;;2.90;0.70;;;6.50;94.90;;;;;;5047145;28;20029;-81
2021/12/02 03:12:32;;;;;;;1.20;0.60;;;6.40;96.30;;;;;;5049713;28;20045;-83
2021/12/02 03:17:28;;;;;;;1.05;0.77;;;6.20;97.30;;;;;;5044160;28;20050;-82
2021/12/02 03:19:54;;;;;;;0.75;0.68;;;6.20;97.60;;;;;;5043098;28;20071;-82
2021/12/02 03:22:20;;;;;;;1.02;0.60;;;6.20;97.90;;;;;;5043535;28;20025;-81
2021/12/02 03:24:46;;;;;;;1.73;0.65;;;6.20;97.90;;;;;;5043417;28;20051;-82
2021/12/02 03:27:12;;;;;;;0.52;0.30;;;6.30;97.80;;;;;;5042392;28;20021;-83
2021/12/02 03:29:39;;;;;;;0.90;0.32;;;6.30;97.70;;;;;;5042814;28;20025;-82
2021/12/02 03:32:05;;;;;;;1.73;0.20;;;5.90;98.70;;;;;;5025446;28;20117;-82
2021/12/02 03:34:32;;;;;;;0.63;0.22;;;5.50;99.90;;;;;;5042950;28;20389;-83
2021/12/02 03:36:57;;;;;;;0.15;0.15;;;5.20;99.90;;;;;;5042965;28;20026;-84
2021/12/02 03:39:25;;;;;;;0.00;0.00;;;5.10;99.90;;;;;;5029541;28;20059;-85
2021/12/02 03:41:51;;;;;;;0.15;0.15;;;4.80;99.90;;;;;;5053491;28;20025;-85
2021/12/02 03:44:17;;;;;;;0.63;0.63;;;4.70;99.90;;;;;;5048088;28;20044;-83
2021/12/02 03:46:43;;;;;;;0.80;0.15;;;4.60;99.90;;;;;;5057285;28;20025;-84
2021/12/02 03:49:09;;;;;;;0.63;0.20;;;4.40;99.90;;;;;;5046784;28;20048;-83
2021/12/02 03:51:35;;;;;;;1.02;0.10;;;4.40;99.90;;;;;;5047507;28;20017;-82
2021/12/02 03:54:01;;;;;;;0.77;0.20;;;4.20;99.90;;;;;;5047094;28;20030;-83
2021/12/02 03:56:27;;;;;;;3.75;0.32;;;4.20;99.90;;;;;;5046945;28;20032;-82
2021/12/02 03:58:53;;;;;;;0.30;0.20;;;4.10;99.90;;;;;;5047424;28;20053;-82
2021/12/02 04:01:21;;;;;;;1.52;0.20;;;4.20;99.90;;;;;;5056330;28;20048;-81
2021/12/02 04:03:47;;;;;;;1.55;0.30;;;4.10;99.90;;;;;;5056439;28;20029;-81
2021/12/02 04:06:14;;;;;;;0.43;0.30;;;4.20;99.90;;;;;;5056168;28;20067;-83
2021/12/02 04:08:51;;;;;;;1.50;0.20;;;4.10;99.90;;;;;;5106147;23;21068;-79
2021/12/02 04:16:37;;;;;;;1.42;0.17;;;4.10;99.90;;;;;;5045247;28;20347;-82
2021/12/02 04:19:05;;;;;;;0.52;0.20;;;4.10;99.90;;;;;;5049687;28;20026;-83
2021/12/02 04:21:32;;;;;;;0.88;0.20;;;4.20;99.90;;;;;;5064527;28;20033;-82
2021/12/02 04:23:58;;;;;;;0.45;0.10;;;4.20;99.90;;;;;;5048726;28;20025;-82
2021/12/02 04:26:24;;;;;;;2.17;0.30;;;4.20;99.90;;;;;;5049196;28;20029;-82
2021/12/02 04:28:49;;;;;;;1.58;0.20;;;4.30;99.90;;;;;;5067349;28;20025;-82
2021/12/02 04:31:15;;;;;;;0.47;0.30;;;4.30;99.90;;;;;;5067374;28;20028;-82
2021/12/02 04:33:41;;;;;;;0.32;0.20;;;4.30;99.90;;;;;;5056413;28;20328;-79
2021/12/02 04:36:07;;;;;;;1.13;0.32;;;4.40;99.90;;;;;;5055195;28;20092;-80
2021/12/02 04:38:33;;;;;;;1.25;0.20;;;4.40;99.90;;;;;;5066227;28;20060;-82
2021/12/02 04:40:59;;;;;;;0.10;0.10;;;4.40;99.90;;;;;;5062409;28;20021;-81
2021/12/02 04:43:25;;;;;;;0.68;0.20;;;4.40;99.90;;;;;;5067353;28;20456;-80
2021/12/02 04:45:51;;;;;;;1.45;0.30;;;4.40;99.90;;;;;;5084175;28;20092;-81
2021/12/02 04:48:18;;;;;;;0.10;0.10;;;4.50;99.90;;;;;;5084441;28;20021;-81
2021/12/02 04:50:45;;;;;;;3.80;0.32;;;4.50;99.90;;;;;;5047441;28;20071;-80
2021/12/02 04:53:11;;;;;;;0.30;0.20;;;4.50;99.90;;;;;;5052636;28;20025;-81
2021/12/02 04:55:38;;;;;;;0.43;0.28;;;4.50;99.90;;;;;;5036425;28;20033;-80
2021/12/02 04:58:05;;;;;;;0.75;0.30;;;4.50;99.90;;;;;;5047415;28;20082;-82
2021/12/02 05:00:31;;;;;;;0.30;0.28;;;4.50;99.90;;;;;;5026921;28;20026;-81
2021/12/02 05:02:58;;;;;;;0.50;0.40;;;4.60;99.90;;;;;;5049073;28;20021;-81
2021/12/02 05:05:25;;;;;;;0.20;0.20;;;4.60;99.90;;;;;;5035352;28;20025;-79
2021/12/02 05:07:53;;;;;;;1.08;0.43;;;4.60;99.90;;;;;;5034755;28;20030;-81
2021/12/02 05:10:20;;;;;;;0.65;0.30;;;4.70;99.90;;;;;;5034250;28;20033;-80
2021/12/02 05:12:46;;;;;;;0.95;0.38;;;4.70;99.90;;;;;;5052929;28;20040;-82
2021/12/02 05:15:11;;;;;;;0.30;0.30;;;4.70;99.90;;;;;;5028994;28;20029;-81
2021/12/02 05:17:37;;;;;;;0.47;0.20;;;4.80;99.90;;;;;;5041593;28;20469;-80
2021/12/02 05:20:05;;;;;;;0.68;0.40;;;4.90;99.90;;;;;;5060276;28;20033;-81
2021/12/02 05:22:32;;;;;;;0.30;0.20;;;4.90;99.90;;;;;;5030195;28;20172;-81
2021/12/02 05:24:58;;;;;;;1.23;0.22;;;4.90;99.90;;;;;;5044731;28;20091;-81
2021/12/02 05:27:23;;;;;;;1.33;0.30;;;4.90;99.90;;;;;;5046293;28;20036;-81
2021/12/02 05:29:49;;;;;;;0.40;0.40;;;4.80;99.90;;;;;;5043614;28;20033;-80
2021/12/02 05:32:15;;;;;;;2.38;0.45;;;4.80;99.90;;;;;;5027495;28;20033;-81
2021/12/02 05:34:41;;;;;;;0.52;0.52;;;4.90;99.90;;;;;;5061530;28;20028;-80
2021/12/02 05:37:07;;;;;;;0.68;0.65;;;4.80;99.90;;;;;;5062659;28;20031;-81
2021/12/02 05:39:33;;;;;;;0.90;0.80;;;4.90;99.90;;;;;;5058533;28;20201;-80
2021/12/02 05:41:59;;;;;;;1.70;1.48;;;4.80;99.90;;;;;;5075628;28;20072;-79
2021/12/02 05:44:25;;;;;;;2.78;2.17;;;4.80;99.90;;;;;;5077559;28;20063;-80
2021/12/02 05:46:51;;;;;;;3.65;3.13;;;4.80;99.90;;;;;;5059254;28;20056;-80
2021/12/02 05:49:17;;;;;;;3.20;2.28;;;4.90;99.90;;;;;;5070040;28;20009;-80
2021/12/02 05:51:45;;;;;;;1.05;0.80;;;5.00;99.90;;;;;;5088736;28;20124;-80
2021/12/02 05:54:11;;;;;;;0.77;0.60;;;5.00;99.90;;;;;;5054879;28;20500;-80
2021/12/02 05:56:37;;;;;;;2.95;0.88;;;5.00;99.90;;;;;;5067633;28;20461;-81
2021/12/02 05:59:03;;;;;;;1.20;0.73;;;5.00;99.90;;;;;;5036801;28;20108;-80
2021/12/02 06:01:28;;;;;;;2.22;1.00;;;5.00;99.90;;;;;;5064166;28;20077;-80
2021/12/02 06:03:54;;;;;;;0.80;0.80;;;5.00;99.90;;;;;;5060999;28;20039;-81
2021/12/02 06:06:23;;;;;;;2.53;0.70;;;5.00;99.90;;;;;;5085494;28;20019;-80
2021/12/02 06:08:49;;;;;;;1.60;0.70;;;5.00;99.90;;;;;;5077108;28;20017;-82
2021/12/02 06:11:15;;;;;;;2.53;1.95;;;4.90;99.90;;;;;;5047763;28;20040;-81
2021/12/02 06:13:41;;;;;;;4.28;2.65;;;4.80;99.90;;;;;;5079143;28;20035;-79
2021/12/02 06:16:07;;;;;;;2.00;1.00;;;4.70;99.90;;;;;;5064741;28;20029;-81
2021/12/02 06:18:33;;;;;;;4.07;1.10;;;4.70;99.90;;;;;;5062566;28;20407;-80
2021/12/02 06:20:59;;;;;;;2.20;0.80;;;4.70;99.90;;;;;;5063553;28;20025;-81
2021/12/02 06:23:25;;;;;;;1.23;0.70;;;4.80;99.90;;;;;;5063119;28;20082;-80
2021/12/02 06:25:51;;;;;;;0.80;0.80;;;4.80;99.90;;;;;;5056138;28;20025;-79
2021/12/02 06:28:17;;;;;;;1.75;0.90;;;4.70;99.90;;;;;;5056190;28;20025;-80
2021/12/02 06:30:44;;;;;;;1.77;0.82;;;4.70;99.90;;;;;;5026758;28;20055;-80
2021/12/02 06:33:10;;;;;;;1.20;0.57;;;4.70;99.90;;;;;;5045758;28;20024;-80
2021/12/02 06:35:36;;;;;;;1.08;0.63;;;4.70;99.90;;;;;;5049196;28;20500;-80
2021/12/02 06:38:02;;;;;;;1.70;0.82;;;4.80;99.90;;;;;;5051779;28;20024;-80
2021/12/02 06:40:28;;;;;;;1.33;1.00;;;4.90;99.90;;;;;;5036701;28;20032;-79
2021/12/02 06:42:55;;;;;;;3.08;1.08;;;4.90;99.90;;;;;;5074189;28;20051;-80
2021/12/02 06:45:21;;;;;;;0.68;0.50;;;5.00;99.90;;;;;;5059474;28;20203;-80
2021/12/02 06:47:47;;;;;;;0.70;0.70;;;5.00;99.90;;;;;;5025170;28;20025;-80
2021/12/02 06:50:18;;;;;;;3.00;0.50;;;5.10;99.90;;;;;;5044526;28;20509;-80
2021/12/02 06:52:46;;;;;;;0.60;0.60;;;5.10;99.90;;;;;;5049492;28;20033;-80
2021/12/02 06:55:13;;;;;;;0.40;0.40;;;5.10;99.90;;;;;;5045290;28;20025;-81
2021/12/02 06:57:39;;;;;;;1.23;0.60;;;5.10;99.90;;;;;;5050798;28;20067;-78
2021/12/02 07:00:08;;;;;;;0.88;0.75;;;5.20;99.90;;;;;;5046973;28;20356;-80
2021/12/02 07:02:35;;;;;;;2.00;0.73;;;5.20;99.90;;;;;;5046116;28;20088;-80
2021/12/02 07:05:01;;;;;;;2.53;0.80;;;5.20;99.90;;;;;;5050735;28;20014;-79
2021/12/02 07:07:31;;;;;;;1.10;0.50;;;5.20;99.90;;;;;;5064353;28;20039;-79
2021/12/02 07:09:59;;;;;;;0.95;0.40;;;5.20;99.90;;;;;;5057534;28;20462;-80
2021/12/02 07:12:30;;;;;;;2.85;0.70;;;5.30;99.90;;;;;;5034241;28;20029;-82
2021/12/02 07:14:58;;;;;;;1.08;0.63;;;5.30;99.90;;;;;;5054865;28;20080;-80
2021/12/02 07:17:24;;;;;;;1.35;0.70;;;5.30;99.90;;;;;;5057515;28;20025;-80
2021/12/02 07:19:49;;;;;;;1.40;0.75;;;5.30;99.90;;;;;;5053673;28;20033;-80
2021/12/02 07:22:15;;;;;;;1.15;0.50;;;5.30;99.90;;;;;;5047249;28;20441;-81
2021/12/02 07:24:41;;;;;;;0.85;0.47;;;5.30;99.90;;;;;;5063505;28;20025;-81
2021/12/02 07:27:07;;;;;;;1.38;0.40;;;5.30;99.90;;;;;;5078909;28;20481;-81
2021/12/02 07:29:33;;;;;;;1.50;0.60;;;5.30;99.90;;;;;;5041260;28;20029;-81
2021/12/02 07:32:02;;;;;;;2.72;0.73;;;5.40;99.40;;;;;;5061459;28;20075;-82
2021/12/02 07:34:33;;;;;;;2.47;0.77;;;5.30;99.40;;;;;;5043551;28;20021;-81
2021/12/02 07:37:00;;;;;;;2.60;0.65;;;5.40;99.60;;;;;;5043000;28;20413;-81
2021/12/02 07:39:28;;;;;;;2.45;0.52;;;5.40;99.70;;;;;;5062055;28;20096;-81
2021/12/02 07:41:55;;;;;;;1.45;0.70;;;5.40;98.70;;;;;;5071370;28;20039;-83
2021/12/02 07:44:21;;;;;;;2.08;0.50;;;5.40;98.50;;;;;;5046353;28;20031;-80
2021/12/02 07:46:47;;;;;;;0.95;0.52;;;5.40;98.60;;;;;;5064384;28;20025;-81
2021/12/02 07:49:13;;;;;;;0.40;0.40;;;5.40;98.40;;;;;;5062600;28;20139;-81
2021/12/02 07:51:43;;;;;;;0.90;0.40;;;5.40;98.20;;;;;;5050186;28;20450;-81
2021/12/02 07:54:12;;;;;;;1.42;0.40;;;5.50;98.00;;;;;;5051937;28;20112;-80
2021/12/02 07:56:38;;;;;;;0.77;0.50;;;5.50;97.90;;;;;;5053847;28;20098;-75
2021/12/02 07:59:05;;;;;;;2.63;0.55;;;5.60;98.30;;;;;;5048964;28;20109;-80
2021/12/02 08:01:34;;;;;;;1.40;0.40;;;5.70;97.30;;;;;;5050360;28;20047;-81
2021/12/02 08:04:00;;;;;;;1.40;0.50;;;5.70;97.10;;;;;;5031193;28;20027;-80
2021/12/02 08:06:27;;;;;;;2.40;0.77;;;5.80;96.60;;;;;;5047303;28;20123;-81
2021/12/02 08:08:53;;;;;;;1.65;0.73;;;5.70;96.70;;;;;;5034170;28;20025;-80
2021/12/02 08:11:19;;;;;;;3.00;0.60;;;5.70;96.00;;;;;;5055073;28;20102;-81
2021/12/02 08:13:50;;;;;;;1.10;0.50;;;5.60;96.10;;;;;;5064483;28;20100;-80
2021/12/02 08:16:18;;;;;;;2.00;0.43;;;5.50;96.40;;;;;;5061034;28;20028;-80
2021/12/02 08:18:44;;;;;;;2.75;0.63;;;5.40;96.60;;;;;;5057648;28;20043;-81
2021/12/02 08:21:10;;;;;;;1.77;0.73;;;5.40;96.90;;;;;;5046006;28;20139;-81
2021/12/02 08:23:36;;;;;;;0.80;0.40;;;5.40;96.60;;;;;;5026870;28;20082;-81
2021/12/02 08:26:01;;;;;;;1.13;0.45;;;5.30;96.60;;;;;;5047858;28;20072;-80
2021/12/02 08:28:28;;;;;;;1.02;0.60;;;5.30;96.80;;;;;;5063278;28;20025;-80
2021/12/02 08:30:54;;;;;;;0.40;0.40;;;5.20;96.90;;;;;;5052876;28;20055;-81
2021/12/02 08:33:20;;;;;;;1.02;0.77;;;5.20;97.20;;;;;;5069867;28;20025;-80
2021/12/02 08:35:48;;;;;;;5.45;1.20;;;5.20;97.40;;;;;;5034496;28;20049;-81
2021/12/02 08:38:17;;;;;;;1.77;0.82;;;5.30;97.30;;;;;;5055286;28;20029;-82
2021/12/02 08:40:46;;;;;;;2.97;0.85;;;5.40;96.80;;;;;;5041139;28;20021;-82
2021/12/02 08:43:14;;;;;;;4.50;1.00;;;5.40;96.70;;;;;;5067637;28;20062;-81
2021/12/02 08:45:43;;;;;;;5.03;1.73;;;5.40;96.60;;;;;;5044211;28;20040;-81
2021/12/02 08:48:10;;;;;;;2.70;0.63;;;5.50;96.60;;;;;;5051473;28;20501;-80
2021/12/02 08:50:38;;;;;;;4.07;1.20;;;5.60;96.00;;;;;;5046052;28;20013;-81
2021/12/02 08:53:05;;;;;;;1.48;0.63;;;5.60;95.70;;;;;;5044318;28;20470;-81
2021/12/02 08:55:31;;;;;;;4.75;1.10;;;5.70;95.50;;;;;;5039552;28;20093;-80
2021/12/02 08:57:58;;;;;;;3.95;1.00;;;5.80;95.20;;;;;;5041633;28;20033;-81
2021/12/02 09:00:32;;;;;;;2.75;0.50;;;5.80;95.10;;;;;;5067122;28;20031;-80
2021/12/02 09:02:58;;;;;;;1.83;0.65;;;5.90;94.90;;;;;;5057630;28;20040;-80
2021/12/02 09:05:23;;;;;;;2.60;0.93;;;5.90;94.80;;;;;;5060079;28;20025;-80
2021/12/02 09:07:49;;;;;;;1.75;0.60;;;6.10;94.50;;;;;;5040065;28;20114;-80
2021/12/02 09:10:15;;;;;;;2.13;0.68;;;6.20;94.10;;;;;;5053230;28;20028;-79
2021/12/02 09:12:42;;;;;;;1.88;0.90;;;6.30;93.50;;;;;;5050127;28;20040;-79
2021/12/02 09:15:08;;;;;;;2.20;0.65;;;6.40;93.00;;;;;;5091077;28;20021;-78
2021/12/02 09:17:35;;;;;;;1.60;0.35;;;6.40;92.40;;;;;;5042813;28;20033;-78
2021/12/02 09:20:02;;;;;;;1.90;0.93;;;6.40;92.60;;;;;;5050008;28;20060;-78
2021/12/02 09:22:28;;;;;;;3.10;0.60;;;6.40;92.40;;;;;;5041460;28;20462;-79
2021/12/02 09:24:54;;;;;;;3.08;1.48;;;6.30;92.30;;;;;;5043777;28;20103;-79
2021/12/02 09:27:20;;;;;;;2.00;0.93;;;6.20;92.20;;;;;;5059840;28;20021;-79
2021/12/02 09:29:45;;;;;;;3.97;0.70;;;6.10;92.30;;;;;;5052398;28;20040;-79
2021/12/02 09:32:11;;;;;;;2.53;0.60;;;6.00;92.20;;;;;;5045389;28;20029;-80
2021/12/02 09:34:37;;;;;;;0.65;0.57;;;6.00;92.30;;;;;;5063664;28;20017;-79
2021/12/02 09:37:04;;;;;;;1.10;0.47;;;6.20;92.30;;;;;;5035321;28;20036;-81
2021/12/02 09:39:32;;;;;;;2.55;1.00;;;6.40;92.30;;;;;;5060027;28;20033;-81
2021/12/02 09:41:58;;;;;;;3.05;0.73;;;6.70;91.20;;;;;;5057577;28;20067;-81
2021/12/02 09:44:24;;;;;;;3.00;0.80;;;6.90;90.90;;;;;;5070681;28;20043;-81
2021/12/02 09:46:51;;;;;;;2.50;0.90;;;7.00;90.20;;;;;;5057177;28;20025;-81
2021/12/02 09:49:17;;;;;;;3.05;0.80;;;7.00;88.80;;;;;;5031441;28;20036;-80
2021/12/02 09:54:19;;;;;;;2.63;0.90;;;7.00;89.10;;;;;;5045084;28;20029;-81
2021/12/02 09:56:51;;;;;;;3.65;1.23;;;6.90;88.30;;;;;;5048083;28;20128;-81
2021/12/02 10:02:20;;;;;;;2.05;1.17;;;6.80;88.00;;;;;;5029267;28;20024;-81
2021/12/02 10:10:11;;;;;;;0.85;0.70;;;6.80;89.40;;;;;;5053571;23;20049;-84
2021/12/02 10:12:43;;;;;;;4.50;0.68;;;6.80;89.60;;;;;;5011968;28;20030;-83
2021/12/02 10:15:13;;;;;;;4.82;0.68;;;6.80;88.50;;;;;;5026801;28;20058;-84
2021/12/02 10:17:44;;;;;;;2.10;0.70;;;7.00;88.60;;;;;;5035263;28;20086;-83
2021/12/02 10:23:19;;;;;;;1.50;1.02;;;7.10;88.90;;;;;;5025411;28;20371;-84
2021/12/02 10:25:49;;;;;;;1.70;0.47;;;7.30;87.10;;;;;;5003893;28;20062;-82
2021/12/02 10:28:18;;;;;;;4.20;0.52;;;7.40;86.90;;;;;;5022090;28;20033;-85
2021/12/02 10:31:12;;;;;;;1.13;0.47;;;7.50;85.60;;;;;;5028881;28;20030;-85
2021/12/02 10:33:42;;;;;;;4.93;1.40;;;7.60;85.20;;;;;;5013141;28;20048;-85
2021/12/02 10:36:22;;;;;;;2.17;0.80;;;7.50;85.10;;;;;;5020237;28;20030;-83
2021/12/02 10:38:48;;;;;;;6.15;1.35;;;7.60;85.10;;;;;;5019901;28;20026;-84
2021/12/02 10:41:25;;;;;;;2.38;0.50;;;7.60;85.40;;;;;;5037375;28;20052;-84
2021/12/02 10:44:13;;;;;;;4.53;0.90;;;7.60;85.20;;;;;;5009423;28;20034;-83
2021/12/02 10:47:00;;;;;;;3.95;1.13;;;7.70;83.80;;;;;;5021321;28;20026;-85
2021/12/02 10:49:25;;;;;;;4.47;0.70;;;7.60;84.00;;;;;;5020003;28;20047;-84
2021/12/02 10:51:54;;;;;;;3.28;0.80;;;7.40;84.50;;;;;;5018061;28;20026;-82
2021/12/02 10:54:27;;;;;;;3.03;0.70;;;7.40;84.90;;;;;;5019505;28;20482;-84
2021/12/02 10:56:56;;;;;;;1.55;0.60;;;7.40;84.60;;;;;;5001109;28;20018;-84
2021/12/02 10:59:43;;;;;;;1.65;0.65;;;7.50;84.90;;;;;;5019148;28;20026;-84
2021/12/02 11:02:18;;;;;;;4.28;0.70;;;7.50;84.80;;;;;;4980631;28;20022;-84
2021/12/02 11:04:46;;;;;;;5.32;0.73;;;7.50;84.90;;;;;;5011110;28;20022;-84
2021/12/02 11:07:21;;;;;;;1.98;0.55;;;7.50;84.70;;;;;;5020896;28;20037;-85
2021/12/02 11:09:48;;;;;;;3.25;0.80;;;7.60;83.60;;;;;;5008889;28;20490;-84
2021/12/02 11:12:19;;;;;;;3.20;0.90;;;7.70;82.60;;;;;;5013991;28;20036;-84
2021/12/02 11:15:06;;;;;;;4.45;0.80;;;7.80;81.80;;;;;;5038897;28;20033;-84
2021/12/02 11:17:35;;;;;;;2.13;0.60;;;7.70;81.50;;;;;;5013824;28;20017;-83
2021/12/02 11:20:08;;;;;;;2.10;0.85;;;7.50;82.80;;;;;;5014821;28;20068;-83
2021/12/02 11:22:34;;;;;;;2.30;0.77;;;7.40;83.00;;;;;;5034549;28;20029;-83
2021/12/02 11:25:01;;;;;;;2.97;1.17;;;7.30;83.80;;;;;;5019223;28;20018;-83
2021/12/02 11:27:38;;;;;;;3.35;1.08;;;7.20;84.80;;;;;;5009012;28;20018;-82
2021/12/02 11:30:09;;;;;;;2.92;1.17;;;7.20;84.70;;;;;;4999993;28;20036;-84
2021/12/02 11:32:45;;;;;;;3.83;0.98;;;7.20;84.60;;;;;;5003493;28;20056;-83
2021/12/02 11:35:12;;;;;;;3.33;0.95;;;7.30;84.60;;;;;;5018927;28;20022;-83
2021/12/02 11:37:42;;;;;;;1.35;0.77;;;7.30;84.40;;;;;;5000643;28;20161;-83
2021/12/02 11:40:11;;;;;;;4.80;0.85;;;7.50;83.20;;;;;;5010722;28;20029;-84
2021/12/02 11:42:38;;;;;;;3.53;0.75;;;7.50;82.50;;;;;;5033024;28;20026;-84
2021/12/02 11:45:06;;;;;;;1.67;0.80;;;7.50;82.80;;;;;;5032797;28;20029;-84
2021/12/02 11:47:32;;;;;;;3.17;0.77;;;7.50;83.00;;;;;;5037865;28;20029;-84
2021/12/02 11:49:58;;;;;;;2.05;1.00;;;7.50;82.60;;;;;;5018761;28;20028;-85
2021/12/02 11:52:24;;;;;;;1.98;0.93;;;7.60;82.70;;;;;;5029775;28;20034;-81
2021/12/02 11:54:59;;;;;;;3.00;0.73;;;7.70;82.60;;;;;;5005454;28;20038;-85
2021/12/02 11:57:26;;;;;;;2.72;0.88;;;7.80;81.60;;;;;;5019058;28;20025;-85
2021/12/02 11:59:52;;;;;;;1.67;0.50;;;7.90;80.60;;;;;;5019173;28;20049;-85
2021/12/02 12:02:18;;;;;;;1.40;0.68;;;7.90;81.20;;;;;;5017403;28;20022;-85
2021/12/02 12:05:03;;;;;;;1.92;0.73;;;7.80;80.70;;;;;;5019496;28;20033;-84
2021/12/02 12:07:40;;;;;;;3.10;0.60;;;7.80;80.40;;;;;;5004306;28;20174;-84
2021/12/02 12:10:20;;;;;;;3.83;0.77;;;7.80;81.00;;;;;;4991805;28;20067;-84
2021/12/02 12:12:47;;;;;;;3.95;0.75;;;7.80;80.40;;;;;;5028609;28;20486;-84
2021/12/02 12:15:33;;;;;;;1.80;0.70;;;7.80;80.50;;;;;;5021979;28;20059;-85
2021/12/02 12:18:00;;;;;;;4.85;1.00;;;7.80;81.00;;;;;;4987020;28;20030;-85
2021/12/02 12:20:55;;;;;;;4.07;0.60;;;7.60;80.90;;;;;;4985703;28;20026;-85
2021/12/02 12:23:29;;;;;;;4.13;0.70;;;7.50;81.30;;;;;;4996132;28;20054;-84
2021/12/02 12:26:30;;;;;;;1.58;0.70;;;7.40;81.10;;;;;;5004478;28;20080;-85
2021/12/02 12:29:13;;;;;;;2.38;0.80;;;7.30;81.60;;;;;;5029004;28;20037;-85
2021/12/02 12:31:45;;;;;;;;;;;7.40;82.40;;;;;;5034932;28;20076;-84
2021/12/02 12:36:55;;;;;;;1.50;0.75;;;7.50;80.40;;;;;;5043461;28;20049;-85
2021/12/02 12:39:24;;;;;;;3.67;1.05;;;7.40;80.90;;;;;;5046377;28;20026;-86
2021/12/02 12:42:10;;;;;;;1.27;0.45;;;7.40;81.10;;;;;;5007250;28;20029;-83
2021/12/02 12:44:49;;;;;;;4.00;0.77;;;7.50;81.30;;;;;;5022492;28;20025;-84
2021/12/02 12:47:17;;;;;;;4.82;0.60;;;7.60;80.90;;;;;;5023734;28;20171;-83
2021/12/02 12:49:43;;;;;;;2.20;1.17;;;7.50;80.40;;;;;;5022115;28;20469;-82
2021/12/02 12:52:35;;;;;;;3.03;0.60;;;7.30;80.70;;;;;;5022272;28;20025;-85
2021/12/02 12:55:21;;;;;;;5.35;0.50;;;7.10;81.40;;;;;;5040700;28;20041;-85
2021/12/02 12:58:06;;;;;;;2.95;0.70;;;6.90;81.60;;;;;;5029586;28;20482;-84
2021/12/02 13:00:37;;;;;;;6.30;0.90;;;6.80;81.80;;;;;;5029670;28;20083;-83
2021/12/02 13:03:11;;;;;;;1.38;0.40;;;6.80;81.90;;;;;;5020573;28;20493;-84
2021/12/02 13:05:43;;;;;;;2.55;1.10;;;6.80;81.80;;;;;;5007740;28;20021;-84
2021/12/02 13:08:38;;;;;;;2.10;0.77;;;6.70;82.30;;;;;;5026842;28;20018;-84
2021/12/02 13:11:31;;;;;;;1.77;0.63;;;6.80;81.80;;;;;;5022239;28;20038;-84
2021/12/02 13:14:00;;;;;;;1.90;0.65;;;6.90;81.50;;;;;;5011854;28;20122;-83
2021/12/02 13:16:34;;;;;;;0.50;0.45;;;6.80;82.00;;;;;;5029075;28;20085;-84
2021/12/02 13:19:12;;;;;;;2.40;0.70;;;6.90;81.60;;;;;;5024977;28;20025;-85
2021/12/02 13:21:39;;;;;;;1.50;0.77;;;6.90;81.90;;;;;;5027339;28;20033;-83
2021/12/02 13:24:19;;;;;;;4.05;1.10;;;6.90;81.80;;;;;;5042823;28;20026;-86
2021/12/02 13:27:00;;;;;;;1.63;0.47;;;6.90;82.10;;;;;;5035647;28;20025;-84
2021/12/02 13:29:31;;;;;;;1.80;0.77;;;7.00;82.60;;;;;;5033190;28;20026;-86
2021/12/02 13:32:00;;;;;;;3.53;0.60;;;7.00;82.80;;;;;;5028376;28;20049;-85
2021/12/02 13:34:28;;;;;;;6.43;1.05;;;7.00;82.30;;;;;;5018728;28;20075;-85
2021/12/02 13:36:58;;;;;;;2.28;1.10;;;7.00;83.20;;;;;;5005045;28;20053;-86
2021/12/02 13:39:35;;;;;;;2.72;1.00;;;7.00;83.60;;;;;;5025791;28;20033;-85
2021/12/02 13:42:09;;;;;;;3.75;0.70;;;7.10;83.40;;;;;;5021694;28;20032;-86